Hanover, New Hampshire
Current Conditions -  °F | °C
As of 2:53 AM on Tuesday 27 Jan 2015 (Local Time) from KLEB Reporting Station
Overcast Overcast  
Wind Chill:   Ceiling: 5500
Heat Index: 17°   Visibility: 10mi
Dew Point:   Wind: 8mph
Humidity: 50%   Direction: 20°NNE
Pressure: 29.85"   Gusts: NA
Location:  43.7°N, 72.29°W
Report Text: KLEB 270753Z AUTO 02007KT 10SM BKN055 OVC070 M08/M17 A2985 RMK AO2 SLP121 T10831172
Loading
Personal Weather Stations






























Interactive Weather Map New forecast layout! Learn more

10-Day Weather Forecast

Advertisements
Track Severe Weather on mobile